sensor_id;sensor_type;location;lat;lon;timestamp;P1;durP1;ratioP1;P2;durP2;ratioP2
56567;SDS011;42456;49.956;20.004;2022-12-20T00:01:12;72.03;;;35.57;;
56567;SDS011;42456;49.956;20.004;2022-12-20T00:03:44;72.43;;;33.90;;
56567;SDS011;42456;49.956;20.004;2022-12-20T00:06:11;73.03;;;34.47;;
56567;SDS011;42456;49.956;20.004;2022-12-20T00:08:39;68.33;;;33.33;;
56567;SDS011;42456;49.956;20.004;2022-12-20T00:11:06;75.87;;;35.10;;
56567;SDS011;42456;49.956;20.004;2022-12-20T00:13:34;74.90;;;31.87;;
56567;SDS011;42456;49.956;20.004;2022-12-20T00:16:12;70.53;;;32.40;;
56567;SDS011;42456;49.956;20.004;2022-12-20T00:18:38;68.47;;;32.47;;
56567;SDS011;42456;49.956;20.004;2022-12-20T00:21:06;71.60;;;31.30;;
56567;SDS011;42456;49.956;20.004;2022-12-20T00:23:36;69.10;;;31.33;;
56567;SDS011;42456;49.956;20.004;2022-12-20T00:26:04;65.03;;;31.23;;
56567;SDS011;42456;49.956;20.004;2022-12-20T00:28:33;79.07;;;34.87;;
56567;SDS011;42456;49.956;20.004;2022-12-20T00:31:01;74.10;;;34.27;;
56567;SDS011;42456;49.956;20.004;2022-12-20T00:33:28;68.77;;;34.27;;
56567;SDS011;42456;49.956;20.004;2022-12-20T00:35:55;70.27;;;34.07;;
56567;SDS011;42456;49.956;20.004;2022-12-20T00:38:22;66.93;;;30.73;;
56567;SDS011;42456;49.956;20.004;2022-12-20T00:40:59;67.80;;;33.07;;
56567;SDS011;42456;49.956;20.004;2022-12-20T00:43:29;70.50;;;32.67;;
56567;SDS011;42456;49.956;20.004;2022-12-20T00:45:57;61.90;;;29.90;;
56567;SDS011;42456;49.956;20.004;2022-12-20T00:48:24;63.40;;;29.27;;
56567;SDS011;42456;49.956;20.004;2022-12-20T00:50:56;67.03;;;30.23;;
56567;SDS011;42456;49.956;20.004;2022-12-20T00:53:24;65.10;;;30.80;;
56567;SDS011;42456;49.956;20.004;2022-12-20T00:55:50;64.83;;;30.50;;
56567;SDS011;42456;49.956;20.004;2022-12-20T00:58:16;68.17;;;29.90;;
56567;SDS011;42456;49.956;20.004;2022-12-20T01:00:43;65.77;;;30.97;;
56567;SDS011;42456;49.956;20.004;2022-12-20T01:03:09;66.13;;;30.47;;
56567;SDS011;42456;49.956;20.004;2022-12-20T01:05:35;60.70;;;28.83;;
56567;SDS011;42456;49.956;20.004;2022-12-20T01:08:02;69.03;;;33.37;;
56567;SDS011;42456;49.956;20.004;2022-12-20T01:10:28;75.07;;;34.70;;
56567;SDS011;42456;49.956;20.004;2022-12-20T01:12:55;85.03;;;38.13;;
56567;SDS011;42456;49.956;20.004;2022-12-20T01:15:21;76.50;;;36.27;;
56567;SDS011;42456;49.956;20.004;2022-12-20T01:17:48;79.50;;;38.67;;
56567;SDS011;42456;49.956;20.004;2022-12-20T01:20:15;96.27;;;45.43;;
56567;SDS011;42456;49.956;20.004;2022-12-20T01:22:42;92.63;;;44.53;;
56567;SDS011;42456;49.956;20.004;2022-12-20T01:25:08;99.10;;;45.80;;
56567;SDS011;42456;49.956;20.004;2022-12-20T01:27:35;88.00;;;38.85;;
56567;SDS011;42456;49.956;20.004;2022-12-20T01:30:01;78.37;;;36.53;;
56567;SDS011;42456;49.956;20.004;2022-12-20T01:32:27;72.20;;;33.30;;
56567;SDS011;42456;49.956;20.004;2022-12-20T01:34:54;70.50;;;34.13;;
56567;SDS011;42456;49.956;20.004;2022-12-20T01:37:20;68.17;;;33.97;;
56567;SDS011;42456;49.956;20.004;2022-12-20T01:39:46;72.10;;;34.73;;
56567;SDS011;42456;49.956;20.004;2022-12-20T01:42:13;74.13;;;34.53;;
56567;SDS011;42456;49.956;20.004;2022-12-20T01:47:11;70.73;;;33.63;;
56567;SDS011;42456;49.956;20.004;2022-12-20T01:49:40;67.57;;;31.07;;
56567;SDS011;42456;49.956;20.004;2022-12-20T01:52:18;62.87;;;28.17;;
56567;SDS011;42456;49.956;20.004;2022-12-20T01:54:57;63.17;;;29.47;;
56567;SDS011;42456;49.956;20.004;2022-12-20T01:57:37;61.53;;;28.50;;
56567;SDS011;42456;49.956;20.004;2022-12-20T02:00:27;60.07;;;28.20;;
56567;SDS011;42456;49.956;20.004;2022-12-20T02:02:54;53.30;;;25.90;;
56567;SDS011;42456;49.956;20.004;2022-12-20T02:05:32;55.10;;;25.63;;
56567;SDS011;42456;49.956;20.004;2022-12-20T02:07:59;54.77;;;26.07;;
56567;SDS011;42456;49.956;20.004;2022-12-20T02:10:26;50.60;;;26.10;;
56567;SDS011;42456;49.956;20.004;2022-12-20T02:13:06;49.53;;;25.07;;
56567;SDS011;42456;49.956;20.004;2022-12-20T02:15:37;53.03;;;26.03;;
56567;SDS011;42456;49.956;20.004;2022-12-20T02:21:53;51.53;;;24.30;;
56567;SDS011;42456;49.956;20.004;2022-12-20T02:24:11;53.75;;;25.00;;
56567;SDS011;42456;49.956;20.004;2022-12-20T02:32:37;68.00;;;31.17;;
56567;SDS011;42456;49.956;20.004;2022-12-20T02:35:25;75.17;;;35.77;;
56567;SDS011;42456;49.956;20.004;2022-12-20T02:37:52;73.60;;;36.27;;
56567;SDS011;42456;49.956;20.004;2022-12-20T02:40:23;64.90;;;30.77;;
56567;SDS011;42456;49.956;20.004;2022-12-20T02:42:54;48.07;;;24.80;;
56567;SDS011;42456;49.956;20.004;2022-12-20T02:45:27;59.47;;;28.67;;
56567;SDS011;42456;49.956;20.004;2022-12-20T02:47:59;63.33;;;30.40;;
56567;SDS011;42456;49.956;20.004;2022-12-20T02:50:39;67.17;;;30.73;;
56567;SDS011;42456;49.956;20.004;2022-12-20T02:53:10;68.83;;;32.83;;
56567;SDS011;42456;49.956;20.004;2022-12-20T02:55:42;91.30;;;44.63;;
56567;SDS011;42456;49.956;20.004;2022-12-20T03:01:25;84.83;;;42.05;;
56567;SDS011;42456;49.956;20.004;2022-12-20T03:04:01;87.70;;;42.37;;
56567;SDS011;42456;49.956;20.004;2022-12-20T03:06:28;80.17;;;40.63;;
56567;SDS011;42456;49.956;20.004;2022-12-20T03:08:55;111.37;;;52.10;;
56567;SDS011;42456;49.956;20.004;2022-12-20T03:11:21;97.30;;;47.37;;
56567;SDS011;42456;49.956;20.004;2022-12-20T03:13:47;101.87;;;45.77;;
56567;SDS011;42456;49.956;20.004;2022-12-20T03:16:14;97.50;;;44.33;;
56567;SDS011;42456;49.956;20.004;2022-12-20T03:18:40;96.07;;;44.30;;
56567;SDS011;42456;49.956;20.004;2022-12-20T03:21:07;96.77;;;43.97;;
56567;SDS011;42456;49.956;20.004;2022-12-20T03:23:33;90.40;;;41.53;;
56567;SDS011;42456;49.956;20.004;2022-12-20T03:25:59;87.97;;;42.67;;
56567;SDS011;42456;49.956;20.004;2022-12-20T03:28:26;80.03;;;40.90;;
56567;SDS011;42456;49.956;20.004;2022-12-20T03:30:53;86.40;;;41.37;;
56567;SDS011;42456;49.956;20.004;2022-12-20T03:33:19;76.93;;;38.17;;
56567;SDS011;42456;49.956;20.004;2022-12-20T03:35:46;75.50;;;38.43;;
56567;SDS011;42456;49.956;20.004;2022-12-20T03:38:13;72.60;;;35.03;;
56567;SDS011;42456;49.956;20.004;2022-12-20T03:40:39;64.03;;;32.13;;
56567;SDS011;42456;49.956;20.004;2022-12-20T03:43:07;59.37;;;27.47;;
56567;SDS011;42456;49.956;20.004;2022-12-20T03:45:33;52.20;;;26.70;;
56567;SDS011;42456;49.956;20.004;2022-12-20T03:47:59;48.50;;;24.67;;
56567;SDS011;42456;49.956;20.004;2022-12-20T03:50:26;46.90;;;24.20;;
56567;SDS011;42456;49.956;20.004;2022-12-20T03:52:52;50.70;;;24.40;;
56567;SDS011;42456;49.956;20.004;2022-12-20T03:55:18;56.63;;;28.77;;
56567;SDS011;42456;49.956;20.004;2022-12-20T03:57:44;76.17;;;36.83;;
56567;SDS011;42456;49.956;20.004;2022-12-20T04:00:11;68.00;;;33.83;;
56567;SDS011;42456;49.956;20.004;2022-12-20T04:02:38;62.53;;;29.03;;
56567;SDS011;42456;49.956;20.004;2022-12-20T04:05:05;57.80;;;29.13;;
56567;SDS011;42456;49.956;20.004;2022-12-20T04:07:32;59.13;;;29.80;;
56567;SDS011;42456;49.956;20.004;2022-12-20T04:09:59;59.97;;;29.63;;
56567;SDS011;42456;49.956;20.004;2022-12-20T04:12:25;56.77;;;28.83;;
56567;SDS011;42456;49.956;20.004;2022-12-20T04:14:51;58.07;;;28.97;;
56567;SDS011;42456;49.956;20.004;2022-12-20T04:17:17;59.80;;;29.60;;
56567;SDS011;42456;49.956;20.004;2022-12-20T04:19:44;57.93;;;28.67;;
56567;SDS011;42456;49.956;20.004;2022-12-20T04:22:10;56.77;;;28.77;;
56567;SDS011;42456;49.956;20.004;2022-12-20T04:24:37;57.50;;;29.17;;
56567;SDS011;42456;49.956;20.004;2022-12-20T04:27:03;54.50;;;27.47;;
56567;SDS011;42456;49.956;20.004;2022-12-20T04:29:29;57.27;;;28.53;;
56567;SDS011;42456;49.956;20.004;2022-12-20T04:31:56;58.63;;;27.83;;
56567;SDS011;42456;49.956;20.004;2022-12-20T04:34:23;49.10;;;25.10;;
56567;SDS011;42456;49.956;20.004;2022-12-20T04:36:49;52.27;;;26.53;;
56567;SDS011;42456;49.956;20.004;2022-12-20T04:39:15;48.57;;;24.50;;
56567;SDS011;42456;49.956;20.004;2022-12-20T04:41:42;49.70;;;26.20;;
56567;SDS011;42456;49.956;20.004;2022-12-20T04:44:08;49.10;;;24.30;;
56567;SDS011;42456;49.956;20.004;2022-12-20T04:46:34;48.77;;;24.57;;
56567;SDS011;42456;49.956;20.004;2022-12-20T04:49:00;47.10;;;23.73;;
56567;SDS011;42456;49.956;20.004;2022-12-20T04:51:27;47.57;;;24.97;;
56567;SDS011;42456;49.956;20.004;2022-12-20T04:53:53;46.53;;;24.57;;
56567;SDS011;42456;49.956;20.004;2022-12-20T04:56:25;48.03;;;23.73;;
56567;SDS011;42456;49.956;20.004;2022-12-20T04:58:53;43.47;;;21.83;;
56567;SDS011;42456;49.956;20.004;2022-12-20T05:01:21;46.23;;;21.87;;
56567;SDS011;42456;49.956;20.004;2022-12-20T05:03:48;39.93;;;21.00;;
56567;SDS011;42456;49.956;20.004;2022-12-20T05:06:14;42.50;;;23.80;;
56567;SDS011;42456;49.956;20.004;2022-12-20T05:08:41;45.77;;;23.27;;
56567;SDS011;42456;49.956;20.004;2022-12-20T05:11:08;44.47;;;21.87;;
56567;SDS011;42456;49.956;20.004;2022-12-20T05:13:34;39.13;;;19.83;;
56567;SDS011;42456;49.956;20.004;2022-12-20T05:16:01;39.07;;;20.90;;
56567;SDS011;42456;49.956;20.004;2022-12-20T05:18:28;41.07;;;21.77;;
56567;SDS011;42456;49.956;20.004;2022-12-20T05:20:59;45.23;;;21.77;;
56567;SDS011;42456;49.956;20.004;2022-12-20T05:23:38;36.87;;;19.93;;
56567;SDS011;42456;49.956;20.004;2022-12-20T05:26:18;38.30;;;20.53;;
56567;SDS011;42456;49.956;20.004;2022-12-20T05:28:44;41.87;;;20.43;;
56567;SDS011;42456;49.956;20.004;2022-12-20T05:31:11;39.03;;;18.70;;
56567;SDS011;42456;49.956;20.004;2022-12-20T05:33:37;41.70;;;20.67;;
56567;SDS011;42456;49.956;20.004;2022-12-20T05:36:04;46.33;;;23.27;;
56567;SDS011;42456;49.956;20.004;2022-12-20T05:38:30;48.37;;;24.37;;
56567;SDS011;42456;49.956;20.004;2022-12-20T05:40:57;48.67;;;23.37;;
56567;SDS011;42456;49.956;20.004;2022-12-20T05:43:23;42.30;;;21.20;;
56567;SDS011;42456;49.956;20.004;2022-12-20T05:45:50;47.33;;;25.97;;
56567;SDS011;42456;49.956;20.004;2022-12-20T05:48:18;58.03;;;28.50;;
56567;SDS011;42456;49.956;20.004;2022-12-20T05:50:45;52.30;;;27.27;;
56567;SDS011;42456;49.956;20.004;2022-12-20T05:53:12;53.90;;;26.23;;
56567;SDS011;42456;49.956;20.004;2022-12-20T05:55:42;47.65;;;24.45;;
56567;SDS011;42456;49.956;20.004;2022-12-20T05:58:17;49.20;;;23.70;;
56567;SDS011;42456;49.956;20.004;2022-12-20T06:00:44;50.27;;;22.87;;
56567;SDS011;42456;49.956;20.004;2022-12-20T06:03:11;50.03;;;24.07;;
56567;SDS011;42456;49.956;20.004;2022-12-20T06:05:39;48.13;;;24.17;;
56567;SDS011;42456;49.956;20.004;2022-12-20T06:08:07;48.80;;;24.53;;
56567;SDS011;42456;49.956;20.004;2022-12-20T06:10:34;47.70;;;22.93;;
56567;SDS011;42456;49.956;20.004;2022-12-20T06:13:01;45.30;;;22.07;;
56567;SDS011;42456;49.956;20.004;2022-12-20T06:15:29;46.87;;;22.67;;
56567;SDS011;42456;49.956;20.004;2022-12-20T06:17:56;45.03;;;21.07;;
56567;SDS011;42456;49.956;20.004;2022-12-20T06:20:22;37.40;;;19.10;;
56567;SDS011;42456;49.956;20.004;2022-12-20T06:22:49;36.67;;;18.07;;
56567;SDS011;42456;49.956;20.004;2022-12-20T06:25:16;39.80;;;18.00;;
56567;SDS011;42456;49.956;20.004;2022-12-20T06:27:43;35.30;;;16.73;;
56567;SDS011;42456;49.956;20.004;2022-12-20T06:30:09;36.60;;;17.77;;
56567;SDS011;42456;49.956;20.004;2022-12-20T06:32:36;33.67;;;16.23;;
56567;SDS011;42456;49.956;20.004;2022-12-20T06:35:04;36.63;;;16.70;;
56567;SDS011;42456;49.956;20.004;2022-12-20T06:37:31;37.63;;;16.70;;
56567;SDS011;42456;49.956;20.004;2022-12-20T06:39:57;35.50;;;16.57;;
56567;SDS011;42456;49.956;20.004;2022-12-20T06:42:24;35.17;;;17.97;;
56567;SDS011;42456;49.956;20.004;2022-12-20T06:44:50;35.43;;;17.07;;
56567;SDS011;42456;49.956;20.004;2022-12-20T06:47:17;35.53;;;16.60;;
56567;SDS011;42456;49.956;20.004;2022-12-20T06:49:43;37.17;;;17.60;;
56567;SDS011;42456;49.956;20.004;2022-12-20T06:52:09;36.93;;;17.70;;
56567;SDS011;42456;49.956;20.004;2022-12-20T06:54:36;41.33;;;18.07;;
56567;SDS011;42456;49.956;20.004;2022-12-20T06:57:02;37.93;;;16.77;;
56567;SDS011;42456;49.956;20.004;2022-12-20T06:59:28;34.27;;;16.07;;
56567;SDS011;42456;49.956;20.004;2022-12-20T07:01:54;36.90;;;17.27;;
56567;SDS011;42456;49.956;20.004;2022-12-20T07:04:21;34.10;;;16.53;;
56567;SDS011;42456;49.956;20.004;2022-12-20T07:06:47;36.70;;;17.20;;
56567;SDS011;42456;49.956;20.004;2022-12-20T07:09:13;33.17;;;15.47;;
56567;SDS011;42456;49.956;20.004;2022-12-20T07:11:39;31.47;;;15.90;;
56567;SDS011;42456;49.956;20.004;2022-12-20T07:14:07;34.90;;;16.37;;
56567;SDS011;42456;49.956;20.004;2022-12-20T07:16:34;37.73;;;16.60;;
56567;SDS011;42456;49.956;20.004;2022-12-20T07:19:00;35.43;;;17.10;;
56567;SDS011;42456;49.956;20.004;2022-12-20T07:21:27;34.83;;;16.80;;
56567;SDS011;42456;49.956;20.004;2022-12-20T07:23:54;37.67;;;18.43;;
56567;SDS011;42456;49.956;20.004;2022-12-20T07:26:20;43.27;;;20.03;;
56567;SDS011;42456;49.956;20.004;2022-12-20T07:28:47;35.67;;;17.50;;
56567;SDS011;42456;49.956;20.004;2022-12-20T07:31:14;33.00;;;16.27;;
56567;SDS011;42456;49.956;20.004;2022-12-20T07:33:42;34.63;;;17.43;;
56567;SDS011;42456;49.956;20.004;2022-12-20T07:36:09;37.60;;;17.27;;
56567;SDS011;42456;49.956;20.004;2022-12-20T07:38:37;31.15;;;15.23;;
56567;SDS011;42456;49.956;20.004;2022-12-20T07:41:07;31.13;;;15.40;;
56567;SDS011;42456;49.956;20.004;2022-12-20T07:43:39;35.13;;;16.53;;
56567;SDS011;42456;49.956;20.004;2022-12-20T07:46:06;31.13;;;14.83;;
56567;SDS011;42456;49.956;20.004;2022-12-20T07:48:32;40.03;;;19.27;;
56567;SDS011;42456;49.956;20.004;2022-12-20T07:51:02;69.40;;;40.63;;
56567;SDS011;42456;49.956;20.004;2022-12-20T07:53:39;46.87;;;25.10;;
56567;SDS011;42456;49.956;20.004;2022-12-20T07:56:09;37.20;;;18.00;;
56567;SDS011;42456;49.956;20.004;2022-12-20T07:58:36;34.77;;;16.13;;
56567;SDS011;42456;49.956;20.004;2022-12-20T08:03:39;37.67;;;17.87;;
56567;SDS011;42456;49.956;20.004;2022-12-20T08:06:08;35.43;;;16.73;;
56567;SDS011;42456;49.956;20.004;2022-12-20T08:08:35;34.27;;;16.47;;
56567;SDS011;42456;49.956;20.004;2022-12-20T08:11:06;34.63;;;18.17;;
56567;SDS011;42456;49.956;20.004;2022-12-20T08:13:35;35.28;;;17.92;;
56567;SDS011;42456;49.956;20.004;2022-12-20T08:16:02;36.43;;;18.33;;
56567;SDS011;42456;49.956;20.004;2022-12-20T08:18:29;32.27;;;16.90;;
56567;SDS011;42456;49.956;20.004;2022-12-20T08:20:56;36.77;;;16.97;;
56567;SDS011;42456;49.956;20.004;2022-12-20T08:23:22;37.80;;;17.00;;
56567;SDS011;42456;49.956;20.004;2022-12-20T08:25:48;33.20;;;15.77;;
56567;SDS011;42456;49.956;20.004;2022-12-20T08:28:14;33.83;;;15.33;;
56567;SDS011;42456;49.956;20.004;2022-12-20T08:30:41;35.90;;;16.90;;
56567;SDS011;42456;49.956;20.004;2022-12-20T08:33:07;36.37;;;17.43;;
56567;SDS011;42456;49.956;20.004;2022-12-20T08:35:33;34.27;;;17.10;;
56567;SDS011;42456;49.956;20.004;2022-12-20T08:38:00;35.43;;;16.10;;
56567;SDS011;42456;49.956;20.004;2022-12-20T08:40:26;34.83;;;16.07;;
56567;SDS011;42456;49.956;20.004;2022-12-20T08:42:53;34.27;;;16.23;;
56567;SDS011;42456;49.956;20.004;2022-12-20T08:45:19;35.47;;;16.63;;
56567;SDS011;42456;49.956;20.004;2022-12-20T08:47:45;37.03;;;17.60;;
56567;SDS011;42456;49.956;20.004;2022-12-20T08:50:12;35.80;;;17.60;;
56567;SDS011;42456;49.956;20.004;2022-12-20T08:52:38;33.20;;;15.57;;
56567;SDS011;42456;49.956;20.004;2022-12-20T08:55:04;31.23;;;15.53;;
56567;SDS011;42456;49.956;20.004;2022-12-20T08:57:31;38.03;;;17.63;;
56567;SDS011;42456;49.956;20.004;2022-12-20T08:59:57;32.67;;;15.43;;
56567;SDS011;42456;49.956;20.004;2022-12-20T09:02:24;36.20;;;18.57;;
56567;SDS011;42456;49.956;20.004;2022-12-20T09:04:51;39.47;;;18.03;;
56567;SDS011;42456;49.956;20.004;2022-12-20T09:07:17;36.00;;;17.73;;
56567;SDS011;42456;49.956;20.004;2022-12-20T09:09:45;37.10;;;17.80;;
56567;SDS011;42456;49.956;20.004;2022-12-20T09:12:11;35.77;;;17.40;;
56567;SDS011;42456;49.956;20.004;2022-12-20T09:14:38;35.60;;;17.57;;
56567;SDS011;42456;49.956;20.004;2022-12-20T09:17:04;35.47;;;18.33;;
56567;SDS011;42456;49.956;20.004;2022-12-20T09:19:30;35.97;;;17.50;;
56567;SDS011;42456;49.956;20.004;2022-12-20T09:21:57;41.77;;;18.47;;
56567;SDS011;42456;49.956;20.004;2022-12-20T09:24:23;32.83;;;16.50;;
56567;SDS011;42456;49.956;20.004;2022-12-20T09:26:49;37.23;;;16.80;;
56567;SDS011;42456;49.956;20.004;2022-12-20T09:29:15;34.23;;;16.53;;
56567;SDS011;42456;49.956;20.004;2022-12-20T09:31:42;33.03;;;15.63;;
56567;SDS011;42456;49.956;20.004;2022-12-20T09:34:08;32.37;;;15.30;;
56567;SDS011;42456;49.956;20.004;2022-12-20T09:36:34;32.17;;;14.70;;
56567;SDS011;42456;49.956;20.004;2022-12-20T09:39:01;32.17;;;14.63;;
56567;SDS011;42456;49.956;20.004;2022-12-20T09:41:28;32.00;;;14.83;;
56567;SDS011;42456;49.956;20.004;2022-12-20T09:43:59;30.23;;;15.07;;
56567;SDS011;42456;49.956;20.004;2022-12-20T09:46:43;31.53;;;14.90;;
56567;SDS011;42456;49.956;20.004;2022-12-20T09:49:15;35.80;;;17.20;;
56567;SDS011;42456;49.956;20.004;2022-12-20T09:51:54;34.60;;;17.30;;
56567;SDS011;42456;49.956;20.004;2022-12-20T10:00:19;33.67;;;16.30;;
56567;SDS011;42456;49.956;20.004;2022-12-20T10:02:46;36.00;;;16.13;;
56567;SDS011;42456;49.956;20.004;2022-12-20T10:05:19;35.77;;;16.33;;
56567;SDS011;42456;49.956;20.004;2022-12-20T10:08:03;37.80;;;16.23;;
56567;SDS011;42456;49.956;20.004;2022-12-20T10:10:47;37.20;;;17.10;;
56567;SDS011;42456;49.956;20.004;2022-12-20T10:13:31;34.53;;;16.93;;
56567;SDS011;42456;49.956;20.004;2022-12-20T10:16:49;37.13;;;16.63;;
56567;SDS011;42456;49.956;20.004;2022-12-20T10:24:38;33.70;;;15.53;;
56567;SDS011;42456;49.956;20.004;2022-12-20T10:27:14;35.43;;;16.20;;
56567;SDS011;42456;49.956;20.004;2022-12-20T10:29:44;34.77;;;16.83;;
56567;SDS011;42456;49.956;20.004;2022-12-20T10:32:21;35.45;;;17.10;;
56567;SDS011;42456;49.956;20.004;2022-12-20T10:34:51;35.80;;;17.40;;
56567;SDS011;42456;49.956;20.004;2022-12-20T10:37:36;33.85;;;16.57;;
56567;SDS011;42456;49.956;20.004;2022-12-20T10:40:03;34.83;;;17.10;;
56567;SDS011;42456;49.956;20.004;2022-12-20T10:47:47;34.00;;;15.77;;
56567;SDS011;42456;49.956;20.004;2022-12-20T10:53:01;36.50;;;16.73;;
56567;SDS011;42456;49.956;20.004;2022-12-20T10:55:33;35.87;;;17.13;;
56567;SDS011;42456;49.956;20.004;2022-12-20T10:58:10;37.83;;;17.60;;
56567;SDS011;42456;49.956;20.004;2022-12-20T11:12:02;35.00;;;16.13;;
56567;SDS011;42456;49.956;20.004;2022-12-20T11:14:43;33.87;;;15.50;;
56567;SDS011;42456;49.956;20.004;2022-12-20T11:23:02;39.00;;;18.23;;
56567;SDS011;42456;49.956;20.004;2022-12-20T11:25:49;37.70;;;18.80;;
56567;SDS011;42456;49.956;20.004;2022-12-20T11:28:21;41.57;;;20.77;;
56567;SDS011;42456;49.956;20.004;2022-12-20T11:31:10;40.43;;;21.93;;
56567;SDS011;42456;49.956;20.004;2022-12-20T11:42:59;35.40;;;16.37;;
56567;SDS011;42456;49.956;20.004;2022-12-20T11:51:02;43.55;;;20.40;;
56567;SDS011;42456;49.956;20.004;2022-12-20T11:53:42;47.13;;;21.43;;
56567;SDS011;42456;49.956;20.004;2022-12-20T11:56:39;41.60;;;18.90;;
56567;SDS011;42456;49.956;20.004;2022-12-20T12:02:08;40.63;;;19.90;;
56567;SDS011;42456;49.956;20.004;2022-12-20T12:05:03;47.67;;;21.77;;
56567;SDS011;42456;49.956;20.004;2022-12-20T12:07:17;43.20;;;20.33;;
56567;SDS011;42456;49.956;20.004;2022-12-20T12:09:57;42.30;;;18.73;;
56567;SDS011;42456;49.956;20.004;2022-12-20T12:12:42;40.53;;;19.53;;
56567;SDS011;42456;49.956;20.004;2022-12-20T12:26:31;43.53;;;20.50;;
56567;SDS011;42456;49.956;20.004;2022-12-20T12:29:05;37.27;;;17.83;;
56567;SDS011;42456;49.956;20.004;2022-12-20T12:37:40;39.17;;;17.97;;
56567;SDS011;42456;49.956;20.004;2022-12-20T12:46:01;41.97;;;19.57;;
56567;SDS011;42456;49.956;20.004;2022-12-20T12:48:27;40.58;;;20.20;;
56567;SDS011;42456;49.956;20.004;2022-12-20T12:51:03;42.43;;;19.23;;
56567;SDS011;42456;49.956;20.004;2022-12-20T12:53:40;37.53;;;17.27;;
56567;SDS011;42456;49.956;20.004;2022-12-20T13:01:55;37.13;;;17.17;;
56567;SDS011;42456;49.956;20.004;2022-12-20T13:18:01;44.03;;;21.57;;
56567;SDS011;42456;49.956;20.004;2022-12-20T13:20:27;44.03;;;21.63;;
56567;SDS011;42456;49.956;20.004;2022-12-20T13:25:39;38.00;;;18.60;;
56567;SDS011;42456;49.956;20.004;2022-12-20T13:33:37;46.23;;;21.53;;
56567;SDS011;42456;49.956;20.004;2022-12-20T13:39:02;41.27;;;20.30;;
56567;SDS011;42456;49.956;20.004;2022-12-20T13:41:47;49.35;;;24.12;;
56567;SDS011;42456;49.956;20.004;2022-12-20T13:44:39;54.67;;;24.57;;
56567;SDS011;42456;49.956;20.004;2022-12-20T13:47:19;53.83;;;24.60;;
56567;SDS011;42456;49.956;20.004;2022-12-20T13:50:01;47.67;;;22.87;;
56567;SDS011;42456;49.956;20.004;2022-12-20T13:52:43;44.13;;;21.20;;
56567;SDS011;42456;49.956;20.004;2022-12-20T13:55:22;44.73;;;21.07;;
56567;SDS011;42456;49.956;20.004;2022-12-20T13:58:03;46.55;;;20.52;;
56567;SDS011;42456;49.956;20.004;2022-12-20T14:00:33;43.90;;;19.67;;
56567;SDS011;42456;49.956;20.004;2022-12-20T14:02:59;44.07;;;21.63;;
56567;SDS011;42456;49.956;20.004;2022-12-20T14:05:33;49.00;;;21.60;;
56567;SDS011;42456;49.956;20.004;2022-12-20T14:08:03;46.17;;;21.27;;
56567;SDS011;42456;49.956;20.004;2022-12-20T14:10:33;46.40;;;20.83;;
56567;SDS011;42456;49.956;20.004;2022-12-20T14:13:00;43.07;;;20.87;;
56567;SDS011;42456;49.956;20.004;2022-12-20T14:15:31;43.53;;;20.33;;
56567;SDS011;42456;49.956;20.004;2022-12-20T14:18:15;42.10;;;20.07;;
56567;SDS011;42456;49.956;20.004;2022-12-20T14:20:46;39.10;;;19.10;;
56567;SDS011;42456;49.956;20.004;2022-12-20T14:23:20;46.30;;;21.93;;
56567;SDS011;42456;49.956;20.004;2022-12-20T14:25:51;48.90;;;22.80;;
56567;SDS011;42456;49.956;20.004;2022-12-20T14:28:36;44.30;;;20.33;;
56567;SDS011;42456;49.956;20.004;2022-12-20T14:31:03;47.47;;;20.77;;
56567;SDS011;42456;49.956;20.004;2022-12-20T14:33:37;42.37;;;21.30;;
56567;SDS011;42456;49.956;20.004;2022-12-20T14:36:10;43.47;;;19.60;;
56567;SDS011;42456;49.956;20.004;2022-12-20T14:38:45;42.88;;;20.17;;
56567;SDS011;42456;49.956;20.004;2022-12-20T14:44:03;46.70;;;22.47;;
56567;SDS011;42456;49.956;20.004;2022-12-20T14:46:39;44.63;;;21.27;;
56567;SDS011;42456;49.956;20.004;2022-12-20T14:49:22;42.10;;;20.10;;
56567;SDS011;42456;49.956;20.004;2022-12-20T14:54:42;41.07;;;19.37;;
56567;SDS011;42456;49.956;20.004;2022-12-20T14:57:22;45.70;;;20.07;;
56567;SDS011;42456;49.956;20.004;2022-12-20T15:05:43;46.70;;;21.73;;
56567;SDS011;42456;49.956;20.004;2022-12-20T15:08:19;44.60;;;20.93;;
56567;SDS011;42456;49.956;20.004;2022-12-20T15:13:38;45.33;;;19.07;;
56567;SDS011;42456;49.956;20.004;2022-12-20T15:18:57;43.17;;;20.10;;
56567;SDS011;42456;49.956;20.004;2022-12-20T15:24:08;43.57;;;20.80;;
56567;SDS011;42456;49.956;20.004;2022-12-20T15:26:42;43.10;;;20.83;;
56567;SDS011;42456;49.956;20.004;2022-12-20T15:29:16;42.40;;;19.90;;
56567;SDS011;42456;49.956;20.004;2022-12-20T15:31:48;43.63;;;20.68;;
56567;SDS011;42456;49.956;20.004;2022-12-20T15:37:00;41.93;;;20.10;;
56567;SDS011;42456;49.956;20.004;2022-12-20T15:39:28;45.23;;;21.23;;
56567;SDS011;42456;49.956;20.004;2022-12-20T15:41:54;39.13;;;19.43;;
56567;SDS011;42456;49.956;20.004;2022-12-20T15:44:25;53.97;;;26.63;;
56567;SDS011;42456;49.956;20.004;2022-12-20T15:46:53;63.92;;;28.52;;
56567;SDS011;42456;49.956;20.004;2022-12-20T15:49:24;62.17;;;28.37;;
56567;SDS011;42456;49.956;20.004;2022-12-20T15:51:53;53.40;;;26.23;;
56567;SDS011;42456;49.956;20.004;2022-12-20T15:56:58;45.73;;;21.47;;
56567;SDS011;42456;49.956;20.004;2022-12-20T15:59:27;47.87;;;21.80;;
56567;SDS011;42456;49.956;20.004;2022-12-20T16:01:54;52.40;;;24.23;;
56567;SDS011;42456;49.956;20.004;2022-12-20T16:04:21;48.87;;;22.67;;
56567;SDS011;42456;49.956;20.004;2022-12-20T16:06:48;47.90;;;22.17;;
56567;SDS011;42456;49.956;20.004;2022-12-20T16:09:18;52.45;;;23.40;;
56567;SDS011;42456;49.956;20.004;2022-12-20T16:11:45;47.43;;;21.80;;
56567;SDS011;42456;49.956;20.004;2022-12-20T16:14:16;50.40;;;24.00;;
56567;SDS011;42456;49.956;20.004;2022-12-20T16:16:47;48.60;;;23.43;;
56567;SDS011;42456;49.956;20.004;2022-12-20T16:19:14;44.30;;;20.77;;
56567;SDS011;42456;49.956;20.004;2022-12-20T16:21:45;45.17;;;20.53;;
56567;SDS011;42456;49.956;20.004;2022-12-20T16:24:17;42.53;;;21.23;;
56567;SDS011;42456;49.956;20.004;2022-12-20T16:26:46;52.17;;;25.15;;
56567;SDS011;42456;49.956;20.004;2022-12-20T16:29:13;53.80;;;25.30;;
56567;SDS011;42456;49.956;20.004;2022-12-20T16:31:40;52.63;;;24.80;;
56567;SDS011;42456;49.956;20.004;2022-12-20T16:34:14;55.70;;;26.27;;
56567;SDS011;42456;49.956;20.004;2022-12-20T16:36:42;47.60;;;22.07;;
56567;SDS011;42456;49.956;20.004;2022-12-20T16:39:08;53.83;;;24.53;;
56567;SDS011;42456;49.956;20.004;2022-12-20T16:41:36;43.87;;;22.43;;
56567;SDS011;42456;49.956;20.004;2022-12-20T16:44:05;50.88;;;25.02;;
56567;SDS011;42456;49.956;20.004;2022-12-20T16:46:35;54.50;;;25.00;;
56567;SDS011;42456;49.956;20.004;2022-12-20T16:49:01;52.07;;;24.17;;
56567;SDS011;42456;49.956;20.004;2022-12-20T16:51:32;49.87;;;24.20;;
56567;SDS011;42456;49.956;20.004;2022-12-20T16:54:14;47.87;;;23.27;;